Time;durP1;ratioP1;P1;durP2;ratioP2;P2;SDS_P1;SDS_P2;PMS_P1;PMS_P2;Temp;Humidity;BMP_temperature;BMP_pressure;BME280_temperature;BME280_humidity;BME280_pressure;Samples;Min_cycle;Max_cycle;Signal;HPM_P1;HPM_P2
2022/01/18 00:00:43;;;;;;;48.40;4.25;;;;;;;;;;5027797;28;20036;-59
2022/01/18 00:03:15;;;;;;;27.27;4.50;;;;;;;;;;5026583;28;20095;-59
2022/01/18 00:05:44;;;;;;;31.20;4.35;;;;;;;;;;5029730;28;20144;-59
2022/01/18 00:08:10;;;;;;;38.90;4.38;;;;;;;;;;5027280;28;20135;-60
2022/01/18 00:10:38;;;;;;;49.22;5.38;;;;;;;;;;5029119;28;20037;-60
2022/01/18 00:15:54;;;;;;;55.72;5.53;;;;;;;;;;5029422;28;20083;-60
2022/01/18 00:18:20;;;;;;;26.50;4.40;;;;;;;;;;5030672;28;20055;-60
2022/01/18 00:21:00;;;;;;;35.03;4.50;;;;;;;;;;5012959;28;20756;-59
2022/01/18 00:23:28;;;;;;;31.88;4.45;;;;;;;;;;5027511;28;20029;-60
2022/01/18 00:25:57;;;;;;;52.42;4.32;;;;;;;;;;5029544;28;20024;-60
2022/01/18 00:28:25;;;;;;;29.52;3.95;;;;;;;;;;5018908;28;20057;-60
2022/01/18 00:39:15;;;;;;;32.67;4.10;;;;;;;;;;4962893;28;20035;-60
2022/01/18 00:41:40;;;;;;;42.53;5.20;;;;;;;;;;4979507;28;20063;-60
2022/01/18 00:44:07;;;;;;;31.85;3.88;;;;;;;;;;5011008;28;20108;-60
2022/01/18 00:46:39;;;;;;;37.65;4.18;;;;;;;;;;5028844;28;20068;-60
2022/01/18 00:49:05;;;;;;;28.63;4.10;;;;;;;;;;5011831;28;20211;-60
2022/01/18 00:51:38;;;;;;;30.50;4.32;;;;;;;;;;5027636;28;20038;-60
2022/01/18 00:54:10;;;;;;;35.28;4.25;;;;;;;;;;5030390;28;20742;-59
2022/01/18 00:56:40;;;;;;;38.65;6.15;;;;;;;;;;5027840;28;20096;-59
2022/01/18 00:59:10;;;;;;;28.58;4.55;;;;;;;;;;5029551;28;20562;-59
2022/01/18 01:01:36;;;;;;;37.30;4.05;;;;;;;;;;5025708;28;20158;-59
2022/01/18 01:04:03;;;;;;;48.05;4.85;;;;;;;;;;5025768;28;20525;-60
2022/01/18 01:06:31;;;;;;;28.98;3.65;;;;;;;;;;5025379;28;20040;-59
2022/01/18 01:08:59;;;;;;;32.15;5.45;;;;;;;;;;5026700;28;20032;-60
2022/01/18 01:11:25;;;;;;;48.28;4.75;;;;;;;;;;5026509;28;20043;-60
2022/01/18 01:13:52;;;;;;;30.27;4.53;;;;;;;;;;5027164;28;20032;-60
2022/01/18 01:19:19;;;;;;;40.75;3.72;;;;;;;;;;5037285;28;20033;-59
2022/01/18 01:44:46;;;;;;;33.92;4.00;;;;;;;;;;5027808;28;20045;-59
2022/01/18 01:46:54;;;;;;;16.88;2.70;;;;;;;;;;5018651;28;20068;-59
2022/01/18 01:49:22;;;;;;;38.53;4.03;;;;;;;;;;5018983;28;20727;-59
2022/01/18 01:51:48;;;;;;;32.25;3.55;;;;;;;;;;5025983;28;20037;-59
2022/01/18 01:54:14;;;;;;;34.55;3.67;;;;;;;;;;5029077;28;20048;-59
2022/01/18 01:56:40;;;;;;;32.28;3.67;;;;;;;;;;5027185;28;20053;-59
2022/01/18 01:59:10;;;;;;;37.50;3.90;;;;;;;;;;5026787;28;20553;-60
2022/01/18 02:01:44;;;;;;;34.03;4.30;;;;;;;;;;5021396;28;20052;-59
2022/01/18 02:04:15;;;;;;;29.13;2.90;;;;;;;;;;5023364;28;20033;-60
2022/01/18 02:06:40;;;;;;;13.57;2.65;;;;;;;;;;5026585;28;20044;-59
2022/01/18 02:09:09;;;;;;;34.60;3.55;;;;;;;;;;5026348;28;20032;-59
2022/01/18 02:11:35;;;;;;;28.50;2.78;;;;;;;;;;5024836;28;20805;-59
2022/01/18 02:14:01;;;;;;;20.80;2.42;;;;;;;;;;5025289;28;20517;-59
2022/01/18 02:22:07;;;;;;;39.72;3.05;;;;;;;;;;5024108;28;20036;-59
2022/01/18 02:24:35;;;;;;;27.70;2.38;;;;;;;;;;5026166;28;20093;-59
2022/01/18 02:27:03;;;;;;;22.92;2.63;;;;;;;;;;5010108;28;20103;-60
2022/01/18 02:29:33;;;;;;;26.27;3.03;;;;;;;;;;5026392;28;20128;-59
2022/01/18 02:32:04;;;;;;;15.10;2.13;;;;;;;;;;5025601;28;20037;-59
2022/01/18 02:34:35;;;;;;;19.95;2.72;;;;;;;;;;5026324;28;20029;-59
2022/01/18 02:37:10;;;;;;;25.10;3.17;;;;;;;;;;5039636;28;20029;-59
2022/01/18 02:39:39;;;;;;;28.35;2.47;;;;;;;;;;5026476;28;20111;-59
2022/01/18 02:42:11;;;;;;;31.42;2.72;;;;;;;;;;5008221;28;20045;-59
2022/01/18 02:44:36;;;;;;;30.40;2.85;;;;;;;;;;5024309;28;20072;-58
2022/01/18 02:47:04;;;;;;;18.05;1.90;;;;;;;;;;5024413;28;20041;-58
2022/01/18 02:49:34;;;;;;;23.90;2.10;;;;;;;;;;5023042;28;20041;-59
2022/01/18 02:52:05;;;;;;;10.85;3.25;;;;;;;;;;5009646;28;20029;-58
2022/01/18 02:54:35;;;;;;;17.30;2.15;;;;;;;;;;5023905;28;20043;-59
2022/01/18 02:57:06;;;;;;;16.13;2.38;;;;;;;;;;5026823;28;20068;-59
2022/01/18 02:59:42;;;;;;;14.10;2.28;;;;;;;;;;5025941;28;20033;-59
2022/01/18 03:05:04;;;;;;;28.27;2.47;;;;;;;;;;5025668;28;20028;-59
2022/01/18 03:07:30;;;;;;;13.73;2.15;;;;;;;;;;5027048;28;20029;-59
2022/01/18 03:09:58;;;;;;;21.83;1.98;;;;;;;;;;5027648;28;20036;-58
2022/01/18 03:12:25;;;;;;;24.38;2.58;;;;;;;;;;5024714;28;20025;-60
2022/01/18 03:14:53;;;;;;;22.02;1.85;;;;;;;;;;5026712;28;20547;-59
2022/01/18 03:17:18;;;;;;;17.50;1.45;;;;;;;;;;5027912;28;20028;-59
2022/01/18 03:19:46;;;;;;;17.48;1.67;;;;;;;;;;5025578;28;20111;-59
2022/01/18 03:22:14;;;;;;;12.50;1.92;;;;;;;;;;5010760;28;20041;-61
2022/01/18 03:24:57;;;;;;;17.75;1.73;;;;;;;;;;5024791;28;20147;-60
2022/01/18 03:30:10;;;;;;;18.13;2.70;;;;;;;;;;5029048;28;20099;-59
2022/01/18 03:32:39;;;;;;;24.65;2.05;;;;;;;;;;5041505;28;20037;-59
2022/01/18 03:35:05;;;;;;;21.40;2.67;;;;;;;;;;5014854;28;20615;-60
2022/01/18 03:37:33;;;;;;;16.27;1.90;;;;;;;;;;5013318;28;20052;-60
2022/01/18 03:39:58;;;;;;;12.25;2.05;;;;;;;;;;5015646;28;20306;-60
2022/01/18 03:44:56;;;;;;;15.82;2.10;;;;;;;;;;5028616;28;20036;-60
2022/01/18 03:47:25;;;;;;;16.30;2.53;;;;;;;;;;5027009;28;20033;-59
2022/01/18 03:49:53;;;;;;;8.57;1.27;;;;;;;;;;5016098;28;20484;-60
2022/01/18 03:52:20;;;;;;;22.52;2.00;;;;;;;;;;5026889;28;20036;-60
2022/01/18 03:54:50;;;;;;;16.55;1.92;;;;;;;;;;5015503;28;20036;-60
2022/01/18 03:57:19;;;;;;;14.40;2.05;;;;;;;;;;5037243;28;20768;-60
2022/01/18 03:59:47;;;;;;;13.07;1.58;;;;;;;;;;5027246;28;20029;-59
2022/01/18 04:02:12;;;;;;;32.10;2.63;;;;;;;;;;5028876;28;20036;-59
2022/01/18 04:04:42;;;;;;;17.95;1.80;;;;;;;;;;5029095;28;20150;-58
2022/01/18 04:07:08;;;;;;;10.27;1.77;;;;;;;;;;5027411;28;20036;-59
2022/01/18 04:09:36;;;;;;;18.17;1.35;;;;;;;;;;5029176;28;20032;-61
2022/01/18 04:12:02;;;;;;;22.80;2.35;;;;;;;;;;5031744;28;20033;-59
2022/01/18 04:14:31;;;;;;;20.63;2.00;;;;;;;;;;5028632;28;20128;-61
2022/01/18 04:27:52;;;;;;;18.02;1.73;;;;;;;;;;5039638;28;20048;-59
2022/01/18 04:30:21;;;;;;;7.13;1.27;;;;;;;;;;5030567;28;20658;-60
2022/01/18 04:32:47;;;;;;;15.20;1.42;;;;;;;;;;5030682;28;20033;-60
2022/01/18 04:35:12;;;;;;;10.02;2.13;;;;;;;;;;5037551;28;20032;-60
2022/01/18 04:37:42;;;;;;;8.38;1.27;;;;;;;;;;5027402;28;20028;-60
2022/01/18 04:40:14;;;;;;;6.57;1.05;;;;;;;;;;5030494;28;20090;-60
2022/01/18 04:50:52;;;;;;;18.63;1.55;;;;;;;;;;5050152;28;20078;-58
2022/01/18 04:53:18;;;;;;;11.80;1.23;;;;;;;;;;5029965;28;20109;-59
2022/01/18 04:55:52;;;;;;;11.27;1.35;;;;;;;;;;5015356;28;20111;-58
2022/01/18 04:58:20;;;;;;;15.35;0.98;;;;;;;;;;5045516;28;20041;-60
2022/01/18 05:00:46;;;;;;;4.65;1.50;;;;;;;;;;5049452;28;20381;-60
2022/01/18 05:03:14;;;;;;;12.32;1.27;;;;;;;;;;5047965;28;20040;-59
2022/01/18 05:05:39;;;;;;;13.57;1.45;;;;;;;;;;5031633;28;20082;-60
2022/01/18 05:08:13;;;;;;;4.43;1.05;;;;;;;;;;5017498;28;20033;-59
2022/01/18 05:10:41;;;;;;;9.60;1.25;;;;;;;;;;5049836;28;20040;-59
2022/01/18 05:13:33;;;;;;;7.07;0.98;;;;;;;;;;5031710;28;20037;-59
2022/01/18 05:16:45;;;;;;;3.00;0.80;;;;;;;;;;5049958;28;20118;-59
2022/01/18 05:24:45;;;;;;;11.88;1.40;;;;;;;;;;5032645;28;20059;-59
2022/01/18 05:27:13;;;;;;;7.72;1.85;;;;;;;;;;5024939;28;20079;-60
2022/01/18 05:29:41;;;;;;;11.20;1.08;;;;;;;;;;5032519;28;20952;-59
2022/01/18 05:32:13;;;;;;;4.95;1.20;;;;;;;;;;5022132;28;20074;-59
2022/01/18 05:34:44;;;;;;;9.27;1.52;;;;;;;;;;5033090;28;20396;-59
2022/01/18 05:37:09;;;;;;;10.48;1.20;;;;;;;;;;5038684;28;20223;-59
2022/01/18 05:39:39;;;;;;;10.38;1.20;;;;;;;;;;5049177;28;20033;-59
2022/01/18 05:42:07;;;;;;;5.80;0.60;;;;;;;;;;5047581;28;20033;-60
2022/01/18 05:44:35;;;;;;;6.78;1.55;;;;;;;;;;5033041;28;20113;-60
2022/01/18 05:47:05;;;;;;;14.18;2.05;;;;;;;;;;5026925;28;21939;-59
2022/01/18 05:49:33;;;;;;;13.85;2.85;;;;;;;;;;5031911;28;20027;-60
2022/01/18 05:51:58;;;;;;;21.52;2.38;;;;;;;;;;5036806;28;20036;-58
2022/01/18 05:54:24;;;;;;;7.35;1.65;;;;;;;;;;5048387;28;20040;-59
2022/01/18 05:56:49;;;;;;;6.47;1.35;;;;;;;;;;5047821;28;20039;-60
2022/01/18 05:59:23;;;;;;;12.30;1.35;;;;;;;;;;5018781;28;20036;-59
2022/01/18 06:02:01;;;;;;;7.38;1.50;;;;;;;;;;5020569;28;22028;-60
2022/01/18 06:07:20;;;;;;;14.35;1.75;;;;;;;;;;4985859;28;20071;-59
2022/01/18 06:09:48;;;;;;;7.90;1.10;;;;;;;;;;5030262;28;20040;-59
2022/01/18 06:12:16;;;;;;;11.82;1.52;;;;;;;;;;5047159;28;20033;-59
2022/01/18 06:14:45;;;;;;;14.10;2.25;;;;;;;;;;5048691;28;20399;-59
2022/01/18 06:17:15;;;;;;;7.55;1.35;;;;;;;;;;5042614;28;20029;-61
2022/01/18 06:19:43;;;;;;;11.20;1.65;;;;;;;;;;5011778;28;20040;-59
2022/01/18 06:22:15;;;;;;;5.03;1.10;;;;;;;;;;5025375;28;20171;-60
2022/01/18 06:24:41;;;;;;;10.40;1.95;;;;;;;;;;5046627;28;20046;-60
2022/01/18 06:27:11;;;;;;;20.85;2.10;;;;;;;;;;5037823;28;20476;-60
2022/01/18 06:29:39;;;;;;;17.77;2.30;;;;;;;;;;5043594;28;20050;-59
2022/01/18 06:32:10;;;;;;;8.68;2.05;;;;;;;;;;5025962;28;20043;-59
2022/01/18 06:34:40;;;;;;;14.55;2.28;;;;;;;;;;5022748;28;20032;-59
2022/01/18 06:37:08;;;;;;;15.77;3.45;;;;;;;;;;5043574;28;20111;-59
2022/01/18 06:39:37;;;;;;;14.45;2.78;;;;;;;;;;5045639;28;20028;-59
2022/01/18 06:42:05;;;;;;;8.32;2.20;;;;;;;;;;5012023;28;20036;-59
2022/01/18 06:44:31;;;;;;;12.93;2.58;;;;;;;;;;5042970;28;20032;-60
2022/01/18 06:46:59;;;;;;;13.77;2.75;;;;;;;;;;5024156;28;20044;-60
2022/01/18 06:49:25;;;;;;;22.95;2.70;;;;;;;;;;5015334;28;20098;-60
2022/01/18 06:51:50;;;;;;;9.68;1.95;;;;;;;;;;5024244;28;20041;-60
2022/01/18 06:54:19;;;;;;;17.48;1.88;;;;;;;;;;5042734;28;20025;-60
2022/01/18 06:56:50;;;;;;;15.40;2.20;;;;;;;;;;5040007;28;20028;-59
2022/01/18 06:59:20;;;;;;;14.80;2.25;;;;;;;;;;5027578;28;20106;-60
2022/01/18 07:01:50;;;;;;;17.58;2.10;;;;;;;;;;5045660;28;20044;-60
2022/01/18 07:04:18;;;;;;;16.17;2.28;;;;;;;;;;5027276;28;20047;-59
2022/01/18 07:06:45;;;;;;;20.48;2.90;;;;;;;;;;5032678;28;20467;-60
2022/01/18 07:09:12;;;;;;;6.05;2.45;;;;;;;;;;5044499;28;20024;-61
2022/01/18 07:11:39;;;;;;;14.18;2.55;;;;;;;;;;5042934;28;20425;-59
2022/01/18 07:14:10;;;;;;;16.40;2.67;;;;;;;;;;5046345;28;20103;-59
2022/01/18 07:20:15;;;;;;;13.13;2.10;;;;;;;;;;5040265;28;20094;-59
2022/01/18 07:22:42;;;;;;;21.23;2.28;;;;;;;;;;5039530;28;20517;-59
2022/01/18 07:25:12;;;;;;;25.17;2.75;;;;;;;;;;5024150;28;20082;-60
2022/01/18 07:27:40;;;;;;;7.72;2.60;;;;;;;;;;5023314;28;20072;-59
2022/01/18 07:30:12;;;;;;;12.32;2.22;;;;;;;;;;5049030;28;20077;-59
2022/01/18 07:32:40;;;;;;;24.67;3.20;;;;;;;;;;5044303;28;20077;-59
2022/01/18 07:35:09;;;;;;;10.15;2.38;;;;;;;;;;5046422;28;20021;-59
2022/01/18 07:37:35;;;;;;;24.25;3.40;;;;;;;;;;5025756;28;20055;-59
2022/01/18 07:40:01;;;;;;;30.02;3.20;;;;;;;;;;5017707;28;20106;-62
2022/01/18 07:42:27;;;;;;;23.63;3.28;;;;;;;;;;5049693;28;20515;-59
2022/01/18 07:44:55;;;;;;;15.00;2.53;;;;;;;;;;5029131;28;20028;-60
2022/01/18 07:47:20;;;;;;;7.38;2.65;;;;;;;;;;5025214;28;20888;-60
2022/01/18 07:49:50;;;;;;;20.05;3.05;;;;;;;;;;5007097;28;20036;-59
2022/01/18 07:52:16;;;;;;;10.85;2.80;;;;;;;;;;5035274;28;20036;-59
2022/01/18 07:54:42;;;;;;;14.00;3.33;;;;;;;;;;5040337;28;20024;-59
2022/01/18 07:57:08;;;;;;;16.98;3.40;;;;;;;;;;5042664;28;20102;-58
2022/01/18 07:59:35;;;;;;;16.63;3.33;;;;;;;;;;5024861;28;20068;-59
2022/01/18 08:02:06;;;;;;;19.08;2.95;;;;;;;;;;5029540;28;20073;-59
2022/01/18 08:04:32;;;;;;;13.98;2.53;;;;;;;;;;5045389;28;20028;-59
2022/01/18 08:06:59;;;;;;;15.38;2.95;;;;;;;;;;5015533;28;20032;-60
2022/01/18 08:09:25;;;;;;;10.10;2.33;;;;;;;;;;5041397;28;20047;-60
2022/01/18 08:11:53;;;;;;;8.77;2.30;;;;;;;;;;5025482;28;20377;-59
2022/01/18 08:14:18;;;;;;;13.10;2.55;;;;;;;;;;5026987;28;20036;-60
2022/01/18 08:17:17;;;;;;;14.38;2.78;;;;;;;;;;5027876;28;20023;-59
2022/01/18 08:19:38;;;;;;;15.50;2.42;;;;;;;;;;5045632;28;20438;-61
2022/01/18 08:22:07;;;;;;;11.82;3.25;;;;;;;;;;5042776;28;20483;-59
2022/01/18 08:24:37;;;;;;;8.30;2.55;;;;;;;;;;5037101;28;20028;-59
2022/01/18 08:27:07;;;;;;;9.60;2.15;;;;;;;;;;5031857;28;20048;-60
2022/01/18 08:29:36;;;;;;;15.35;3.08;;;;;;;;;;5034003;28;20175;-60
2022/01/18 08:32:07;;;;;;;21.13;2.58;;;;;;;;;;5032175;28;20035;-61
2022/01/18 08:34:35;;;;;;;14.82;2.50;;;;;;;;;;5044272;28;21012;-60
2022/01/18 08:37:01;;;;;;;11.18;2.78;;;;;;;;;;5042787;28;20510;-58
2022/01/18 08:39:29;;;;;;;15.85;2.47;;;;;;;;;;5045657;28;20036;-59
2022/01/18 08:41:55;;;;;;;8.77;2.35;;;;;;;;;;5026079;28;20492;-59
2022/01/18 08:44:21;;;;;;;12.23;3.13;;;;;;;;;;5049891;28;20032;-59
2022/01/18 08:46:46;;;;;;;12.30;2.33;;;;;;;;;;5016111;28;20499;-59
2022/01/18 08:49:14;;;;;;;9.18;2.63;;;;;;;;;;5049839;28;20074;-59
2022/01/18 08:51:45;;;;;;;20.00;3.10;;;;;;;;;;5031439;28;20032;-59
2022/01/18 08:54:10;;;;;;;5.50;2.47;;;;;;;;;;5029798;28;20119;-58
2022/01/18 08:56:40;;;;;;;11.25;2.25;;;;;;;;;;5025653;28;20309;-59
2022/01/18 08:59:08;;;;;;;13.48;2.85;;;;;;;;;;5025085;28;20035;-58
2022/01/18 09:01:33;;;;;;;12.25;2.33;;;;;;;;;;5032561;28;20197;-59
2022/01/18 09:04:02;;;;;;;9.20;3.08;;;;;;;;;;5028900;28;20036;-59
2022/01/18 09:06:30;;;;;;;14.95;2.83;;;;;;;;;;5046891;28;20083;-59
2022/01/18 09:08:57;;;;;;;22.52;3.20;;;;;;;;;;5047374;28;20025;-58
2022/01/18 09:11:25;;;;;;;13.07;2.75;;;;;;;;;;5042144;28;20028;-60
2022/01/18 09:13:51;;;;;;;8.93;2.33;;;;;;;;;;5028743;28;20037;-62
2022/01/18 09:16:17;;;;;;;11.45;1.80;;;;;;;;;;5027379;28;21871;-59
2022/01/18 09:18:45;;;;;;;6.63;1.98;;;;;;;;;;5037831;28;20050;-61
2022/01/18 09:21:14;;;;;;;17.33;2.58;;;;;;;;;;5044414;28;20768;-61
2022/01/18 09:23:44;;;;;;;13.90;3.08;;;;;;;;;;5026943;28;21532;-59
2022/01/18 09:26:13;;;;;;;16.25;2.63;;;;;;;;;;5044952;28;20032;-59
2022/01/18 09:28:38;;;;;;;14.30;2.80;;;;;;;;;;5043155;28;20048;-61
2022/01/18 09:31:04;;;;;;;15.13;2.50;;;;;;;;;;5022439;28;20964;-59
2022/01/18 09:33:31;;;;;;;14.70;3.22;;;;;;;;;;5044845;28;20033;-59
2022/01/18 09:35:59;;;;;;;8.05;2.72;;;;;;;;;;5017209;28;20028;-59
2022/01/18 09:38:25;;;;;;;13.50;3.00;;;;;;;;;;5015475;28;20036;-61
2022/01/18 09:40:50;;;;;;;15.05;2.58;;;;;;;;;;5030778;28;20036;-59
2022/01/18 09:43:16;;;;;;;13.10;2.58;;;;;;;;;;5038581;28;20123;-59
2022/01/18 09:45:43;;;;;;;19.65;2.92;;;;;;;;;;5024023;28;20085;-60
2022/01/18 09:48:10;;;;;;;15.93;3.40;;;;;;;;;;5047832;28;20115;-60
2022/01/18 09:50:38;;;;;;;20.67;3.53;;;;;;;;;;5018431;28;20036;-59
2022/01/18 09:53:05;;;;;;;11.30;2.83;;;;;;;;;;5033276;28;20028;-59
2022/01/18 09:55:31;;;;;;;14.38;3.35;;;;;;;;;;5038926;28;20032;-60
2022/01/18 09:57:57;;;;;;;9.95;2.85;;;;;;;;;;5048468;28;20032;-59
2022/01/18 10:00:27;;;;;;;10.73;2.67;;;;;;;;;;5040208;28;20790;-60
2022/01/18 10:02:55;;;;;;;18.95;3.22;;;;;;;;;;5030950;28;20032;-60
2022/01/18 10:05:26;;;;;;;11.82;3.40;;;;;;;;;;5050172;28;20040;-59
2022/01/18 10:07:58;;;;;;;18.60;3.45;;;;;;;;;;5030219;28;20663;-59
2022/01/18 10:10:34;;;;;;;18.80;2.92;;;;;;;;;;5051422;28;20040;-60
2022/01/18 10:13:00;;;;;;;13.70;3.08;;;;;;;;;;5031949;28;20434;-59
2022/01/18 10:15:25;;;;;;;9.65;2.50;;;;;;;;;;5014369;28;20040;-59
2022/01/18 10:18:01;;;;;;;13.38;2.60;;;;;;;;;;5030951;28;20044;-60
2022/01/18 10:20:28;;;;;;;19.38;2.97;;;;;;;;;;5033973;28;20460;-60
2022/01/18 10:22:54;;;;;;;13.80;2.40;;;;;;;;;;5030412;28;20072;-60
2022/01/18 10:25:25;;;;;;;9.20;2.30;;;;;;;;;;5047454;28;20021;-60
2022/01/18 10:27:54;;;;;;;17.08;2.85;;;;;;;;;;5046586;28;20060;-60
2022/01/18 10:30:32;;;;;;;9.05;2.30;;;;;;;;;;5047516;28;21083;-60
2022/01/18 10:33:17;;;;;;;13.93;3.13;;;;;;;;;;5031360;28;20040;-60
2022/01/18 10:36:01;;;;;;;14.60;3.10;;;;;;;;;;5046721;28;20033;-60
2022/01/18 10:38:29;;;;;;;18.08;3.33;;;;;;;;;;5031628;28;20036;-60
2022/01/18 10:40:55;;;;;;;19.50;2.45;;;;;;;;;;5027476;28;20058;-59
2022/01/18 10:43:30;;;;;;;8.50;2.42;;;;;;;;;;5045350;28;20185;-59
2022/01/18 10:46:13;;;;;;;14.63;2.58;;;;;;;;;;5046658;28;20082;-60
2022/01/18 10:48:48;;;;;;;19.60;3.03;;;;;;;;;;5044107;28;20025;-60
2022/01/18 10:51:32;;;;;;;12.85;3.05;;;;;;;;;;5010018;28;20134;-60
2022/01/18 10:54:02;;;;;;;11.55;2.45;;;;;;;;;;5047281;28;20065;-59
2022/01/18 10:56:44;;;;;;;13.30;2.50;;;;;;;;;;5046979;28;20037;-60
2022/01/18 10:59:22;;;;;;;12.88;2.45;;;;;;;;;;5048993;28;20036;-60
2022/01/18 11:02:09;;;;;;;8.57;2.70;;;;;;;;;;5030828;28;20043;-60
2022/01/18 11:04:38;;;;;;;15.02;1.95;;;;;;;;;;5030752;28;20040;-60
2022/01/18 11:07:12;;;;;;;8.60;2.13;;;;;;;;;;4998588;28;20033;-60
2022/01/18 11:09:38;;;;;;;8.52;2.35;;;;;;;;;;5048417;28;20437;-60
2022/01/18 11:12:05;;;;;;;11.70;3.17;;;;;;;;;;5048716;28;20120;-60
2022/01/18 11:14:38;;;;;;;6.93;1.75;;;;;;;;;;5028341;28;20072;-61
2022/01/18 11:17:05;;;;;;;10.80;2.22;;;;;;;;;;5048957;28;20037;-60
2022/01/18 11:19:35;;;;;;;5.65;1.85;;;;;;;;;;5029742;28;20132;-60
2022/01/18 11:22:06;;;;;;;10.80;2.15;;;;;;;;;;5018965;28;20040;-61
2022/01/18 11:24:38;;;;;;;10.82;2.15;;;;;;;;;;5033774;28;20024;-59
2022/01/18 11:27:08;;;;;;;9.20;2.20;;;;;;;;;;5032023;28;20111;-59
2022/01/18 11:29:43;;;;;;;11.68;2.45;;;;;;;;;;5047687;28;20575;-62
2022/01/18 11:32:12;;;;;;;12.93;1.70;;;;;;;;;;5045591;28;20028;-60
2022/01/18 11:34:43;;;;;;;8.85;1.88;;;;;;;;;;5045030;28;20495;-59
2022/01/18 11:37:21;;;;;;;7.63;1.88;;;;;;;;;;5031939;28;20510;-59
2022/01/18 11:39:46;;;;;;;9.75;1.92;;;;;;;;;;5046135;28;20156;-59
2022/01/18 11:42:13;;;;;;;9.93;1.92;;;;;;;;;;5046195;28;20027;-60
2022/01/18 11:44:41;;;;;;;10.93;1.42;;;;;;;;;;5045421;28;20089;-59
2022/01/18 11:47:08;;;;;;;2.33;1.52;;;;;;;;;;5032328;28;20127;-59
2022/01/18 11:49:34;;;;;;;8.52;1.92;;;;;;;;;;5046440;28;20033;-59
2022/01/18 11:52:03;;;;;;;7.00;1.85;;;;;;;;;;5045962;28;20028;-59
2022/01/18 11:54:39;;;;;;;8.13;1.90;;;;;;;;;;5049619;28;20672;-59
2022/01/18 11:57:22;;;;;;;12.85;2.33;;;;;;;;;;5047543;28;20058;-59
2022/01/18 12:00:02;;;;;;;14.88;2.03;;;;;;;;;;5023616;28;20037;-59
2022/01/18 12:02:29;;;;;;;8.63;2.03;;;;;;;;;;5051172;28;20044;-59
2022/01/18 12:04:57;;;;;;;10.07;2.47;;;;;;;;;;5049750;28;20051;-59
2022/01/18 12:07:49;;;;;;;11.35;2.53;;;;;;;;;;5042446;28;20041;-59
2022/01/18 12:10:42;;;;;;;11.20;2.50;;;;;;;;;;5048721;28;20045;-59
2022/01/18 12:13:12;;;;;;;5.63;2.35;;;;;;;;;;5031734;28;20127;-58
2022/01/18 12:15:41;;;;;;;8.20;2.28;;;;;;;;;;5023143;28;20134;-58
2022/01/18 12:18:09;;;;;;;6.88;2.38;;;;;;;;;;5050441;28;20036;-60
2022/01/18 12:20:37;;;;;;;10.18;2.47;;;;;;;;;;5051896;28;20809;-60
2022/01/18 12:23:07;;;;;;;9.27;2.60;;;;;;;;;;5031679;28;20028;-59
2022/01/18 12:25:35;;;;;;;7.53;2.38;;;;;;;;;;5048334;28;20522;-59
2022/01/18 12:28:46;;;;;;;8.45;2.20;;;;;;;;;;5050499;28;20041;-60
2022/01/18 12:31:40;;;;;;;10.68;2.10;;;;;;;;;;5033104;28;20036;-59
2022/01/18 12:34:28;;;;;;;10.43;2.70;;;;;;;;;;5025352;28;20041;-58
2022/01/18 12:37:14;;;;;;;11.48;3.30;;;;;;;;;;5048462;28;20036;-59
2022/01/18 12:40:05;;;;;;;15.32;2.90;;;;;;;;;;5049106;28;20115;-59
2022/01/18 12:44:59;;;;;;;14.88;3.58;;;;;;;;;;5049353;28;21054;-58
2022/01/18 12:47:27;;;;;;;9.82;3.17;;;;;;;;;;5048427;28;20852;-59
2022/01/18 12:49:55;;;;;;;11.68;3.17;;;;;;;;;;5051726;28;20061;-59
2022/01/18 12:52:23;;;;;;;14.57;3.28;;;;;;;;;;5034526;28;20028;-58
2022/01/18 12:54:48;;;;;;;13.82;3.75;;;;;;;;;;5033689;28;20028;-58
2022/01/18 12:57:15;;;;;;;13.55;3.53;;;;;;;;;;5049487;28;20039;-61
2022/01/18 13:00:02;;;;;;;13.07;3.20;;;;;;;;;;5031932;28;20039;-59
2022/01/18 13:02:28;;;;;;;18.48;4.65;;;;;;;;;;5031492;28;20487;-61
2022/01/18 13:05:00;;;;;;;13.82;3.63;;;;;;;;;;5030635;28;20039;-60
2022/01/18 13:07:26;;;;;;;11.25;2.88;;;;;;;;;;5022818;28;20541;-59
2022/01/18 13:10:01;;;;;;;13.77;4.22;;;;;;;;;;5022759;28;20182;-59
2022/01/18 13:12:29;;;;;;;20.70;3.83;;;;;;;;;;5048007;28;20762;-59
2022/01/18 13:14:59;;;;;;;14.23;3.30;;;;;;;;;;5016850;28;20067;-59
2022/01/18 13:23:24;;;;;;;;;;;;;;;;;;5031642;28;20147;-59
2022/01/18 13:25:57;;;;;;;13.75;4.68;;;;;;;;;;5048157;28;20393;-60
2022/01/18 13:28:33;;;;;;;14.23;4.22;;;;;;;;;;5049798;28;21253;-59
2022/01/18 13:31:14;;;;;;;13.23;3.58;;;;;;;;;;5050275;28;20521;-59
2022/01/18 13:33:53;;;;;;;9.35;3.50;;;;;;;;;;5040478;28;20036;-59
2022/01/18 13:36:21;;;;;;;15.85;4.18;;;;;;;;;;5050270;28;20033;-58
2022/01/18 13:38:47;;;;;;;18.23;3.90;;;;;;;;;;5013454;28;20028;-59
2022/01/18 13:41:18;;;;;;;14.13;4.18;;;;;;;;;;5006638;28;20169;-59
2022/01/18 13:43:49;;;;;;;14.68;4.28;;;;;;;;;;5030643;28;20491;-59
2022/01/18 13:46:29;;;;;;;13.38;3.55;;;;;;;;;;5023142;28;21023;-59
2022/01/18 13:49:05;;;;;;;16.52;4.18;;;;;;;;;;5033886;28;20046;-59
2022/01/18 13:51:30;;;;;;;13.05;3.60;;;;;;;;;;5046170;28;20315;-59
2022/01/18 13:54:07;;;;;;;16.42;4.65;;;;;;;;;;5030054;28;20032;-60
2022/01/18 13:56:45;;;;;;;15.60;4.25;;;;;;;;;;5033342;28;20495;-59
2022/01/18 13:59:24;;;;;;;19.65;4.75;;;;;;;;;;5036051;28;20031;-60
2022/01/18 14:01:54;;;;;;;25.05;5.85;;;;;;;;;;5014282;28;20036;-59
2022/01/18 14:04:25;;;;;;;21.63;5.47;;;;;;;;;;5049389;28;20033;-60
2022/01/18 14:06:55;;;;;;;13.13;3.55;;;;;;;;;;5016703;28;20772;-58
2022/01/18 14:09:23;;;;;;;17.95;4.95;;;;;;;;;;5029327;28;20036;-60
2022/01/18 14:11:53;;;;;;;17.75;4.80;;;;;;;;;;5039251;28;20043;-59
2022/01/18 14:14:21;;;;;;;11.10;3.75;;;;;;;;;;5048786;28;20037;-60
2022/01/18 14:16:47;;;;;;;9.75;4.00;;;;;;;;;;5033860;28;20086;-59
2022/01/18 14:19:26;;;;;;;20.58;5.07;;;;;;;;;;5030541;28;20483;-59
2022/01/18 14:21:53;;;;;;;21.08;4.32;;;;;;;;;;5050477;28;20166;-60
2022/01/18 14:24:20;;;;;;;17.40;4.43;;;;;;;;;;5024509;28;21006;-60
2022/01/18 14:26:52;;;;;;;12.40;3.50;;;;;;;;;;5047702;28;20039;-60
2022/01/18 14:29:21;;;;;;;12.48;3.25;;;;;;;;;;5049081;28;21943;-59
2022/01/18 14:32:15;;;;;;;10.77;3.35;;;;;;;;;;5021317;28;20416;-59
2022/01/18 14:34:48;;;;;;;10.98;3.33;;;;;;;;;;5037848;28;20059;-59
2022/01/18 14:37:16;;;;;;;12.02;3.38;;;;;;;;;;5047205;28;20024;-59
2022/01/18 14:40:00;;;;;;;20.90;4.50;;;;;;;;;;5048102;28;20150;-59
2022/01/18 14:42:33;;;;;;;9.82;3.00;;;;;;;;;;5037208;28;20056;-59
2022/01/18 14:45:03;;;;;;;12.50;3.67;;;;;;;;;;5021970;28;20136;-59
2022/01/18 14:47:29;;;;;;;17.70;4.20;;;;;;;;;;5029950;28;20492;-59
2022/01/18 14:49:55;;;;;;;11.23;4.35;;;;;;;;;;5031805;28;20064;-59
2022/01/18 14:52:20;;;;;;;14.35;4.97;;;;;;;;;;5029451;28;20996;-59
2022/01/18 14:54:46;;;;;;;21.52;4.28;;;;;;;;;;5049081;28;20016;-58
2022/01/18 14:57:12;;;;;;;15.05;4.20;;;;;;;;;;4996416;28;20043;-59
2022/01/18 14:59:38;;;;;;;17.50;4.13;;;;;;;;;;5047359;28;20221;-60
2022/01/18 15:02:05;;;;;;;26.95;4.35;;;;;;;;;;5046729;28;20032;-59
2022/01/18 15:04:33;;;;;;;17.70;4.85;;;;;;;;;;5030739;28;20044;-59
2022/01/18 15:06:58;;;;;;;19.30;4.78;;;;;;;;;;5046253;28;20040;-59
2022/01/18 15:09:28;;;;;;;20.30;3.85;;;;;;;;;;5031373;28;20038;-59
2022/01/18 15:11:54;;;;;;;19.75;4.68;;;;;;;;;;5028250;28;20047;-60
2022/01/18 15:14:20;;;;;;;15.05;5.00;;;;;;;;;;5029627;28;20443;-59
2022/01/18 15:16:48;;;;;;;15.80;4.50;;;;;;;;;;5045005;28;20036;-60
2022/01/18 15:19:16;;;;;;;22.60;5.63;;;;;;;;;;5011720;28;20025;-60
2022/01/18 15:21:43;;;;;;;16.73;4.88;;;;;;;;;;5047749;28;20078;-60
2022/01/18 15:24:11;;;;;;;21.60;5.78;;;;;;;;;;5028253;28;20020;-59
2022/01/18 15:26:37;;;;;;;25.15;6.03;;;;;;;;;;5045323;28;20071;-59
2022/01/18 15:29:04;;;;;;;15.40;5.32;;;;;;;;;;5027884;28;20052;-59
2022/01/18 15:31:30;;;;;;;21.45;6.65;;;;;;;;;;5037277;28;20052;-60
2022/01/18 15:33:58;;;;;;;20.67;6.35;;;;;;;;;;5015433;28;20500;-59
2022/01/18 15:36:24;;;;;;;20.15;6.47;;;;;;;;;;5043850;28;20025;-60
2022/01/18 15:38:52;;;;;;;23.83;6.35;;;;;;;;;;5047536;28;20782;-60
2022/01/18 15:41:20;;;;;;;25.10;7.40;;;;;;;;;;5040941;28;20036;-60
2022/01/18 15:43:49;;;;;;;28.33;7.18;;;;;;;;;;5044323;28;20109;-60
2022/01/18 15:46:16;;;;;;;28.10;7.50;;;;;;;;;;5041118;28;20040;-60
2022/01/18 15:48:51;;;;;;;36.60;8.45;;;;;;;;;;5012750;28;20064;-60
2022/01/18 15:51:16;;;;;;;26.55;6.95;;;;;;;;;;5025607;28;20050;-59
2022/01/18 15:53:47;;;;;;;21.17;7.68;;;;;;;;;;5044803;28;20033;-60
2022/01/18 15:56:16;;;;;;;24.73;7.03;;;;;;;;;;5023633;28;20044;-60
2022/01/18 15:58:44;;;;;;;34.63;7.20;;;;;;;;;;5043040;28;21839;-60
2022/01/18 16:01:09;;;;;;;36.13;8.15;;;;;;;;;;5010974;28;20045;-60
2022/01/18 16:03:35;;;;;;;25.23;9.02;;;;;;;;;;5032289;28;20036;-60
2022/01/18 16:06:00;;;;;;;33.53;8.82;;;;;;;;;;5031187;28;20066;-60
2022/01/18 16:08:31;;;;;;;26.85;9.43;;;;;;;;;;5031608;28;20040;-60
2022/01/18 16:11:03;;;;;;;32.78;9.75;;;;;;;;;;5020820;28;20094;-60
2022/01/18 16:13:29;;;;;;;30.67;10.30;;;;;;;;;;5044393;28;20039;-60
2022/01/18 16:15:58;;;;;;;29.25;9.55;;;;;;;;;;5029246;28;20036;-60
2022/01/18 16:18:28;;;;;;;39.38;11.48;;;;;;;;;;5046052;28;20032;-60